sensor_id;sensor_type;location;lat;lon;timestamp;temperature;humidity
19862;DHT22;10093;48.148;8.542;2023-08-21T00:01:40;18.90;99.90
19862;DHT22;10093;48.148;8.542;2023-08-21T00:04:06;18.90;99.90
19862;DHT22;10093;48.148;8.542;2023-08-21T00:06:32;18.80;99.90
19862;DHT22;10093;48.148;8.542;2023-08-21T00:08:57;18.70;99.90
19862;DHT22;10093;48.148;8.542;2023-08-21T00:11:23;18.60;99.90
19862;DHT22;10093;48.148;8.542;2023-08-21T00:13:49;18.60;99.90
19862;DHT22;10093;48.148;8.542;2023-08-21T00:16:16;18.70;99.90
19862;DHT22;10093;48.148;8.542;2023-08-21T00:18:42;18.70;99.90
19862;DHT22;10093;48.148;8.542;2023-08-21T00:21:07;18.50;99.90
19862;DHT22;10093;48.148;8.542;2023-08-21T00:23:33;18.60;99.90
19862;DHT22;10093;48.148;8.542;2023-08-21T00:25:59;18.60;99.90
19862;DHT22;10093;48.148;8.542;2023-08-21T00:28:24;18.50;99.90
19862;DHT22;10093;48.148;8.542;2023-08-21T00:30:50;18.70;99.90
19862;DHT22;10093;48.148;8.542;2023-08-21T00:33:15;18.80;99.90
19862;DHT22;10093;48.148;8.542;2023-08-21T00:35:42;18.80;99.90
19862;DHT22;10093;48.148;8.542;2023-08-21T00:38:08;18.90;99.90
19862;DHT22;10093;48.148;8.542;2023-08-21T00:40:33;18.80;99.90
19862;DHT22;10093;48.148;8.542;2023-08-21T00:42:59;18.80;99.90
19862;DHT22;10093;48.148;8.542;2023-08-21T00:45:25;18.60;99.90
19862;DHT22;10093;48.148;8.542;2023-08-21T00:47:51;18.40;99.90
19862;DHT22;10093;48.148;8.542;2023-08-21T00:50:17;18.50;99.90
19862;DHT22;10093;48.148;8.542;2023-08-21T00:52:44;18.60;99.90
19862;DHT22;10093;48.148;8.542;2023-08-21T00:55:12;18.70;99.90
19862;DHT22;10093;48.148;8.542;2023-08-21T00:57:38;18.60;99.90
19862;DHT22;10093;48.148;8.542;2023-08-21T01:00:05;18.70;99.90
19862;DHT22;10093;48.148;8.542;2023-08-21T01:02:31;18.60;99.90
19862;DHT22;10093;48.148;8.542;2023-08-21T01:04:56;18.60;99.90
19862;DHT22;10093;48.148;8.542;2023-08-21T01:07:22;18.60;99.90
19862;DHT22;10093;48.148;8.542;2023-08-21T01:10:22;18.50;99.90
19862;DHT22;10093;48.148;8.542;2023-08-21T01:15:43;18.40;99.90
19862;DHT22;10093;48.148;8.542;2023-08-21T01:18:10;18.40;99.90
19862;DHT22;10093;48.148;8.542;2023-08-21T01:20:36;18.40;99.90
19862;DHT22;10093;48.148;8.542;2023-08-21T01:23:05;18.40;99.90
19862;DHT22;10093;48.148;8.542;2023-08-21T01:25:32;18.30;99.90
19862;DHT22;10093;48.148;8.542;2023-08-21T01:27:57;18.20;99.90
19862;DHT22;10093;48.148;8.542;2023-08-21T01:30:23;18.10;99.90
19862;DHT22;10093;48.148;8.542;2023-08-21T01:35:21;18.10;99.90
19862;DHT22;10093;48.148;8.542;2023-08-21T01:37:48;18.00;99.90
19862;DHT22;10093;48.148;8.542;2023-08-21T01:40:23;18.00;99.90
19862;DHT22;10093;48.148;8.542;2023-08-21T01:42:49;17.90;99.90
19862;DHT22;10093;48.148;8.542;2023-08-21T01:45:14;17.70;99.90
19862;DHT22;10093;48.148;8.542;2023-08-21T01:47:40;17.60;99.90
19862;DHT22;10093;48.148;8.542;2023-08-21T01:50:06;17.50;99.90
19862;DHT22;10093;48.148;8.542;2023-08-21T01:52:32;17.50;99.90
19862;DHT22;10093;48.148;8.542;2023-08-21T01:54:58;17.50;99.90
19862;DHT22;10093;48.148;8.542;2023-08-21T01:57:24;17.50;99.90
19862;DHT22;10093;48.148;8.542;2023-08-21T01:59:49;17.60;99.90
19862;DHT22;10093;48.148;8.542;2023-08-21T02:02:15;17.60;99.90
19862;DHT22;10093;48.148;8.542;2023-08-21T02:04:40;17.60;99.90
19862;DHT22;10093;48.148;8.542;2023-08-21T02:07:06;17.50;99.90
19862;DHT22;10093;48.148;8.542;2023-08-21T02:09:33;17.50;99.90
19862;DHT22;10093;48.148;8.542;2023-08-21T02:11:58;17.40;99.90
19862;DHT22;10093;48.148;8.542;2023-08-21T02:14:24;17.40;99.90
19862;DHT22;10093;48.148;8.542;2023-08-21T02:16:50;17.20;99.90
19862;DHT22;10093;48.148;8.542;2023-08-21T02:19:15;17.20;99.90
19862;DHT22;10093;48.148;8.542;2023-08-21T02:21:41;17.10;99.90
19862;DHT22;10093;48.148;8.542;2023-08-21T02:24:06;17.10;99.90
19862;DHT22;10093;48.148;8.542;2023-08-21T02:26:32;17.00;99.90
19862;DHT22;10093;48.148;8.542;2023-08-21T02:28:58;16.90;99.90
19862;DHT22;10093;48.148;8.542;2023-08-21T02:31:23;17.00;99.90
19862;DHT22;10093;48.148;8.542;2023-08-21T02:33:49;17.00;99.90
19862;DHT22;10093;48.148;8.542;2023-08-21T02:36:16;17.20;99.90
19862;DHT22;10093;48.148;8.542;2023-08-21T02:38:41;17.20;99.90
19862;DHT22;10093;48.148;8.542;2023-08-21T02:41:07;17.40;99.90
19862;DHT22;10093;48.148;8.542;2023-08-21T02:43:33;17.50;99.90
19862;DHT22;10093;48.148;8.542;2023-08-21T02:45:59;17.50;99.90
19862;DHT22;10093;48.148;8.542;2023-08-21T02:48:25;17.60;99.90
19862;DHT22;10093;48.148;8.542;2023-08-21T02:50:50;17.50;99.90
19862;DHT22;10093;48.148;8.542;2023-08-21T02:53:16;17.60;99.90
19862;DHT22;10093;48.148;8.542;2023-08-21T02:55:42;17.60;99.90
19862;DHT22;10093;48.148;8.542;2023-08-21T02:58:07;17.40;99.90
19862;DHT22;10093;48.148;8.542;2023-08-21T03:00:33;17.20;99.90
19862;DHT22;10093;48.148;8.542;2023-08-21T03:02:58;17.10;99.90
19862;DHT22;10093;48.148;8.542;2023-08-21T03:05:25;17.00;99.90
19862;DHT22;10093;48.148;8.542;2023-08-21T03:07:50;17.00;99.90
19862;DHT22;10093;48.148;8.542;2023-08-21T03:10:16;17.00;99.90
19862;DHT22;10093;48.148;8.542;2023-08-21T03:12:41;17.10;99.90
19862;DHT22;10093;48.148;8.542;2023-08-21T03:15:07;17.20;99.90
19862;DHT22;10093;48.148;8.542;2023-08-21T03:17:33;17.30;99.90
19862;DHT22;10093;48.148;8.542;2023-08-21T03:19:59;17.40;99.90
19862;DHT22;10093;48.148;8.542;2023-08-21T03:22:24;17.40;99.90
19862;DHT22;10093;48.148;8.542;2023-08-21T03:24:50;17.40;99.90
19862;DHT22;10093;48.148;8.542;2023-08-21T03:27:16;17.40;99.90
19862;DHT22;10093;48.148;8.542;2023-08-21T03:29:44;17.40;99.90
19862;DHT22;10093;48.148;8.542;2023-08-21T03:32:16;17.30;99.90
19862;DHT22;10093;48.148;8.542;2023-08-21T03:34:43;17.10;99.90
19862;DHT22;10093;48.148;8.542;2023-08-21T03:37:08;17.20;99.90
19862;DHT22;10093;48.148;8.542;2023-08-21T03:39:34;17.10;99.90
19862;DHT22;10093;48.148;8.542;2023-08-21T03:42:00;17.10;99.90
19862;DHT22;10093;48.148;8.542;2023-08-21T03:44:25;17.00;99.90
19862;DHT22;10093;48.148;8.542;2023-08-21T03:46:51;16.80;99.90
19862;DHT22;10093;48.148;8.542;2023-08-21T03:49:16;16.60;99.90
19862;DHT22;10093;48.148;8.542;2023-08-21T03:51:42;16.60;99.90
19862;DHT22;10093;48.148;8.542;2023-08-21T03:54:08;16.50;99.90
19862;DHT22;10093;48.148;8.542;2023-08-21T03:56:34;16.40;99.90
19862;DHT22;10093;48.148;8.542;2023-08-21T03:58:59;16.30;99.90
19862;DHT22;10093;48.148;8.542;2023-08-21T04:01:25;16.30;99.90
19862;DHT22;10093;48.148;8.542;2023-08-21T04:03:51;16.30;99.90
19862;DHT22;10093;48.148;8.542;2023-08-21T04:06:16;16.30;99.90
19862;DHT22;10093;48.148;8.542;2023-08-21T04:08:42;16.30;99.90
19862;DHT22;10093;48.148;8.542;2023-08-21T04:11:07;16.40;99.90
19862;DHT22;10093;48.148;8.542;2023-08-21T04:13:33;16.50;99.90
19862;DHT22;10093;48.148;8.542;2023-08-21T04:15:59;16.70;99.90
19862;DHT22;10093;48.148;8.542;2023-08-21T04:18:24;16.70;99.90
19862;DHT22;10093;48.148;8.542;2023-08-21T04:20:50;16.60;99.90
19862;DHT22;10093;48.148;8.542;2023-08-21T04:23:16;16.60;99.90
19862;DHT22;10093;48.148;8.542;2023-08-21T04:25:41;16.60;99.90
19862;DHT22;10093;48.148;8.542;2023-08-21T04:28:08;16.50;99.90
19862;DHT22;10093;48.148;8.542;2023-08-21T04:30:34;16.50;99.90
19862;DHT22;10093;48.148;8.542;2023-08-21T04:33:00;16.60;99.90
19862;DHT22;10093;48.148;8.542;2023-08-21T04:35:26;16.40;99.90
19862;DHT22;10093;48.148;8.542;2023-08-21T04:37:51;16.40;99.90
19862;DHT22;10093;48.148;8.542;2023-08-21T04:40:17;16.40;99.90
19862;DHT22;10093;48.148;8.542;2023-08-21T04:42:45;16.30;99.90
19862;DHT22;10093;48.148;8.542;2023-08-21T04:45:11;16.40;99.90
19862;DHT22;10093;48.148;8.542;2023-08-21T04:47:37;16.50;99.90
19862;DHT22;10093;48.148;8.542;2023-08-21T04:50:02;16.50;99.90
19862;DHT22;10093;48.148;8.542;2023-08-21T04:52:28;16.70;99.90
19862;DHT22;10093;48.148;8.542;2023-08-21T04:54:54;16.70;99.90
19862;DHT22;10093;48.148;8.542;2023-08-21T04:57:20;16.80;99.90
19862;DHT22;10093;48.148;8.542;2023-08-21T04:59:48;16.80;99.90
19862;DHT22;10093;48.148;8.542;2023-08-21T05:02:14;17.00;99.90
19862;DHT22;10093;48.148;8.542;2023-08-21T05:04:40;17.10;99.90
19862;DHT22;10093;48.148;8.542;2023-08-21T05:07:05;17.20;99.90
19862;DHT22;10093;48.148;8.542;2023-08-21T05:09:32;17.30;99.90
19862;DHT22;10093;48.148;8.542;2023-08-21T05:11:57;17.30;99.90
19862;DHT22;10093;48.148;8.542;2023-08-21T05:14:23;17.50;99.90
19862;DHT22;10093;48.148;8.542;2023-08-21T05:16:49;18.00;99.90
19862;DHT22;10093;48.148;8.542;2023-08-21T05:19:15;19.00;99.90
19862;DHT22;10093;48.148;8.542;2023-08-21T05:21:42;20.00;99.90
19862;DHT22;10093;48.148;8.542;2023-08-21T05:24:07;21.00;99.90
19862;DHT22;10093;48.148;8.542;2023-08-21T05:26:35;22.00;99.90
19862;DHT22;10093;48.148;8.542;2023-08-21T05:29:00;22.90;99.90
19862;DHT22;10093;48.148;8.542;2023-08-21T05:31:26;23.70;99.90
19862;DHT22;10093;48.148;8.542;2023-08-21T05:33:52;24.40;99.90
19862;DHT22;10093;48.148;8.542;2023-08-21T05:36:17;25.00;99.90
19862;DHT22;10093;48.148;8.542;2023-08-21T05:38:43;25.60;99.90
19862;DHT22;10093;48.148;8.542;2023-08-21T05:41:08;26.20;99.90
19862;DHT22;10093;48.148;8.542;2023-08-21T05:43:34;26.70;99.90
19862;DHT22;10093;48.148;8.542;2023-08-21T05:46:00;27.30;99.90
19862;DHT22;10093;48.148;8.542;2023-08-21T05:48:25;27.70;99.90
19862;DHT22;10093;48.148;8.542;2023-08-21T05:50:52;28.30;99.90
19862;DHT22;10093;48.148;8.542;2023-08-21T05:53:18;28.80;99.90
19862;DHT22;10093;48.148;8.542;2023-08-21T05:55:44;29.20;99.90
19862;DHT22;10093;48.148;8.542;2023-08-21T05:58:09;29.40;99.90
19862;DHT22;10093;48.148;8.542;2023-08-21T06:00:35;29.70;99.90
19862;DHT22;10093;48.148;8.542;2023-08-21T06:03:01;30.20;99.90
19862;DHT22;10093;48.148;8.542;2023-08-21T06:05:27;30.60;99.90
19862;DHT22;10093;48.148;8.542;2023-08-21T06:07:52;30.90;99.90
19862;DHT22;10093;48.148;8.542;2023-08-21T06:10:18;31.30;99.90
19862;DHT22;10093;48.148;8.542;2023-08-21T06:12:44;31.70;99.90
19862;DHT22;10093;48.148;8.542;2023-08-21T06:15:10;32.20;99.90
19862;DHT22;10093;48.148;8.542;2023-08-21T06:17:36;32.60;99.90
19862;DHT22;10093;48.148;8.542;2023-08-21T06:20:03;33.00;99.90
19862;DHT22;10093;48.148;8.542;2023-08-21T06:22:31;33.50;99.90
19862;DHT22;10093;48.148;8.542;2023-08-21T06:24:57;33.90;99.90
19862;DHT22;10093;48.148;8.542;2023-08-21T06:27:22;33.70;99.90
19862;DHT22;10093;48.148;8.542;2023-08-21T06:29:48;34.10;99.90
19862;DHT22;10093;48.148;8.542;2023-08-21T06:32:14;34.30;99.90
19862;DHT22;10093;48.148;8.542;2023-08-21T06:34:39;34.70;99.90
19862;DHT22;10093;48.148;8.542;2023-08-21T06:37:05;35.10;99.90
19862;DHT22;10093;48.148;8.542;2023-08-21T06:39:31;35.60;99.90
19862;DHT22;10093;48.148;8.542;2023-08-21T06:41:56;35.80;99.90
19862;DHT22;10093;48.148;8.542;2023-08-21T06:44:22;35.80;99.90
19862;DHT22;10093;48.148;8.542;2023-08-21T06:46:48;35.90;99.90
19862;DHT22;10093;48.148;8.542;2023-08-21T06:49:13;35.80;99.90
19862;DHT22;10093;48.148;8.542;2023-08-21T06:51:39;35.90;99.90
19862;DHT22;10093;48.148;8.542;2023-08-21T06:54:05;35.90;99.90
19862;DHT22;10093;48.148;8.542;2023-08-21T06:56:31;35.20;99.90
19862;DHT22;10093;48.148;8.542;2023-08-21T06:58:56;35.80;99.90
19862;DHT22;10093;48.148;8.542;2023-08-21T07:01:22;36.50;99.90
19862;DHT22;10093;48.148;8.542;2023-08-21T07:03:48;37.20;99.90
19862;DHT22;10093;48.148;8.542;2023-08-21T07:06:13;36.30;99.90
19862;DHT22;10093;48.148;8.542;2023-08-21T07:08:39;37.20;99.90
19862;DHT22;10093;48.148;8.542;2023-08-21T07:11:06;37.90;99.90
19862;DHT22;10093;48.148;8.542;2023-08-21T07:13:36;37.80;99.90
19862;DHT22;10093;48.148;8.542;2023-08-21T07:16:02;38.00;99.90
19862;DHT22;10093;48.148;8.542;2023-08-21T07:18:32;36.50;99.90
19862;DHT22;10093;48.148;8.542;2023-08-21T07:20:58;36.10;99.90
19862;DHT22;10093;48.148;8.542;2023-08-21T07:23:23;36.90;99.90
19862;DHT22;10093;48.148;8.542;2023-08-21T07:25:49;38.00;99.90
19862;DHT22;10093;48.148;8.542;2023-08-21T07:28:15;38.30;99.90
19862;DHT22;10093;48.148;8.542;2023-08-21T07:30:40;38.50;99.90
19862;DHT22;10093;48.148;8.542;2023-08-21T07:33:06;38.30;99.90
19862;DHT22;10093;48.148;8.542;2023-08-21T07:35:32;38.30;99.90
19862;DHT22;10093;48.148;8.542;2023-08-21T07:37:58;37.30;99.90
19862;DHT22;10093;48.148;8.542;2023-08-21T07:40:24;37.40;99.90
19862;DHT22;10093;48.148;8.542;2023-08-21T07:42:50;38.40;99.90
19862;DHT22;10093;48.148;8.542;2023-08-21T07:45:16;38.60;99.90
19862;DHT22;10093;48.148;8.542;2023-08-21T07:47:42;38.20;99.90
19862;DHT22;10093;48.148;8.542;2023-08-21T07:50:08;37.80;99.90
19862;DHT22;10093;48.148;8.542;2023-08-21T07:52:35;37.00;99.90
19862;DHT22;10093;48.148;8.542;2023-08-21T07:55:01;35.90;99.90
19862;DHT22;10093;48.148;8.542;2023-08-21T07:57:27;36.20;99.90
19862;DHT22;10093;48.148;8.542;2023-08-21T07:59:54;37.10;99.90
19862;DHT22;10093;48.148;8.542;2023-08-21T08:02:19;37.80;99.90
19862;DHT22;10093;48.148;8.542;2023-08-21T08:04:46;37.80;99.90
19862;DHT22;10093;48.148;8.542;2023-08-21T08:07:11;38.00;99.90
19862;DHT22;10093;48.148;8.542;2023-08-21T08:09:37;37.40;99.90
19862;DHT22;10093;48.148;8.542;2023-08-21T08:12:03;38.50;99.90
19862;DHT22;10093;48.148;8.542;2023-08-21T08:14:29;38.50;99.90
19862;DHT22;10093;48.148;8.542;2023-08-21T08:16:54;38.60;99.90
19862;DHT22;10093;48.148;8.542;2023-08-21T08:19:20;39.20;99.90
19862;DHT22;10093;48.148;8.542;2023-08-21T08:21:46;40.20;99.90
19862;DHT22;10093;48.148;8.542;2023-08-21T08:24:12;40.60;99.90
19862;DHT22;10093;48.148;8.542;2023-08-21T08:26:37;39.20;99.90
19862;DHT22;10093;48.148;8.542;2023-08-21T08:29:03;39.30;99.90
19862;DHT22;10093;48.148;8.542;2023-08-21T08:31:30;39.50;99.90
19862;DHT22;10093;48.148;8.542;2023-08-21T08:33:56;39.50;99.90
19862;DHT22;10093;48.148;8.542;2023-08-21T08:36:22;39.50;99.90
19862;DHT22;10093;48.148;8.542;2023-08-21T08:38:48;38.60;99.90
19862;DHT22;10093;48.148;8.542;2023-08-21T08:41:25;36.80;99.90
19862;DHT22;10093;48.148;8.542;2023-08-21T08:43:57;36.90;99.90
19862;DHT22;10093;48.148;8.542;2023-08-21T08:46:24;37.70;99.90
19862;DHT22;10093;48.148;8.542;2023-08-21T08:48:51;36.90;99.90
19862;DHT22;10093;48.148;8.542;2023-08-21T08:51:17;38.00;99.90
19862;DHT22;10093;48.148;8.542;2023-08-21T08:53:43;38.90;99.90
19862;DHT22;10093;48.148;8.542;2023-08-21T08:56:09;40.30;99.90
19862;DHT22;10093;48.148;8.542;2023-08-21T08:58:35;41.00;99.90
19862;DHT22;10093;48.148;8.542;2023-08-21T09:01:00;41.80;99.90
19862;DHT22;10093;48.148;8.542;2023-08-21T09:03:27;40.80;99.90
19862;DHT22;10093;48.148;8.542;2023-08-21T09:05:53;38.40;99.90
19862;DHT22;10093;48.148;8.542;2023-08-21T09:08:19;38.60;99.90
19862;DHT22;10093;48.148;8.542;2023-08-21T09:10:45;37.10;99.90
19862;DHT22;10093;48.148;8.542;2023-08-21T09:13:18;35.50;99.90
19862;DHT22;10093;48.148;8.542;2023-08-21T09:15:46;32.90;99.90
19862;DHT22;10093;48.148;8.542;2023-08-21T09:18:13;31.10;99.90
19862;DHT22;10093;48.148;8.542;2023-08-21T09:20:40;31.50;99.90
19862;DHT22;10093;48.148;8.542;2023-08-21T09:23:06;33.00;99.90
19862;DHT22;10093;48.148;8.542;2023-08-21T09:25:37;33.90;99.90
19862;DHT22;10093;48.148;8.542;2023-08-21T09:28:07;34.00;99.90
19862;DHT22;10093;48.148;8.542;2023-08-21T09:30:50;33.90;99.90
19862;DHT22;10093;48.148;8.542;2023-08-21T09:33:20;35.40;99.90
19862;DHT22;10093;48.148;8.542;2023-08-21T09:35:47;36.00;99.90
19862;DHT22;10093;48.148;8.542;2023-08-21T09:38:13;35.50;99.90
19862;DHT22;10093;48.148;8.542;2023-08-21T09:40:49;35.30;99.90
19862;DHT22;10093;48.148;8.542;2023-08-21T09:43:16;36.40;99.90
19862;DHT22;10093;48.148;8.542;2023-08-21T09:45:46;37.10;99.90
19862;DHT22;10093;48.148;8.542;2023-08-21T09:48:12;36.10;99.90
19862;DHT22;10093;48.148;8.542;2023-08-21T09:50:38;35.50;99.90
19862;DHT22;10093;48.148;8.542;2023-08-21T09:53:06;35.90;99.90
19862;DHT22;10093;48.148;8.542;2023-08-21T09:55:32;34.90;99.90
19862;DHT22;10093;48.148;8.542;2023-08-21T09:58:01;35.80;99.90
19862;DHT22;10093;48.148;8.542;2023-08-21T10:00:35;36.00;99.90
19862;DHT22;10093;48.148;8.542;2023-08-21T10:03:06;36.80;99.90
19862;DHT22;10093;48.148;8.542;2023-08-21T10:05:36;36.70;99.90
19862;DHT22;10093;48.148;8.542;2023-08-21T10:08:03;37.60;99.90
19862;DHT22;10093;48.148;8.542;2023-08-21T10:10:35;37.60;99.90
19862;DHT22;10093;48.148;8.542;2023-08-21T10:13:01;35.70;99.90
19862;DHT22;10093;48.148;8.542;2023-08-21T10:15:28;36.60;99.90
19862;DHT22;10093;48.148;8.542;2023-08-21T10:17:54;37.10;99.90
19862;DHT22;10093;48.148;8.542;2023-08-21T10:20:25;35.60;99.90
19862;DHT22;10093;48.148;8.542;2023-08-21T10:22:55;37.00;99.90
19862;DHT22;10093;48.148;8.542;2023-08-21T10:25:29;37.60;99.90
19862;DHT22;10093;48.148;8.542;2023-08-21T10:27:56;38.10;99.90
19862;DHT22;10093;48.148;8.542;2023-08-21T10:32:49;34.90;99.90
19862;DHT22;10093;48.148;8.542;2023-08-21T10:35:17;35.90;99.90
19862;DHT22;10093;48.148;8.542;2023-08-21T10:40:30;38.50;99.90
19862;DHT22;10093;48.148;8.542;2023-08-21T10:42:56;37.40;99.90
19862;DHT22;10093;48.148;8.542;2023-08-21T10:45:21;38.60;99.90
19862;DHT22;10093;48.148;8.542;2023-08-21T10:47:47;39.40;99.90
19862;DHT22;10093;48.148;8.542;2023-08-21T10:50:14;38.80;99.90
19862;DHT22;10093;48.148;8.542;2023-08-21T10:52:42;36.90;99.90
19862;DHT22;10093;48.148;8.542;2023-08-21T10:55:11;33.80;99.90
19862;DHT22;10093;48.148;8.542;2023-08-21T10:57:37;34.80;99.90
19862;DHT22;10093;48.148;8.542;2023-08-21T11:00:04;36.70;99.90
19862;DHT22;10093;48.148;8.542;2023-08-21T11:02:31;37.60;99.90
19862;DHT22;10093;48.148;8.542;2023-08-21T11:05:00;36.50;99.90
19862;DHT22;10093;48.148;8.542;2023-08-21T11:07:27;34.40;99.90
19862;DHT22;10093;48.148;8.542;2023-08-21T11:09:53;34.80;99.90
19862;DHT22;10093;48.148;8.542;2023-08-21T11:12:23;36.60;99.90
19862;DHT22;10093;48.148;8.542;2023-08-21T11:14:50;38.70;99.90
19862;DHT22;10093;48.148;8.542;2023-08-21T11:17:15;37.60;99.90
19862;DHT22;10093;48.148;8.542;2023-08-21T11:19:42;34.60;99.90
19862;DHT22;10093;48.148;8.542;2023-08-21T11:22:08;34.60;99.90
19862;DHT22;10093;48.148;8.542;2023-08-21T11:27:13;35.50;99.90
19862;DHT22;10093;48.148;8.542;2023-08-21T11:29:44;35.10;99.90
19862;DHT22;10093;48.148;8.542;2023-08-21T11:34:35;35.30;99.90
19862;DHT22;10093;48.148;8.542;2023-08-21T11:37:01;34.20;99.90
19862;DHT22;10093;48.148;8.542;2023-08-21T11:39:27;33.10;99.90
19862;DHT22;10093;48.148;8.542;2023-08-21T11:42:09;32.60;99.90
19862;DHT22;10093;48.148;8.542;2023-08-21T11:44:40;31.90;99.90
19862;DHT22;10093;48.148;8.542;2023-08-21T11:47:06;31.10;99.90
19862;DHT22;10093;48.148;8.542;2023-08-21T11:49:32;31.20;99.90
19862;DHT22;10093;48.148;8.542;2023-08-21T11:51:57;32.40;99.90
19862;DHT22;10093;48.148;8.542;2023-08-21T11:54:23;32.80;99.90
19862;DHT22;10093;48.148;8.542;2023-08-21T11:56:48;32.90;99.90
19862;DHT22;10093;48.148;8.542;2023-08-21T11:59:23;32.80;99.90
19862;DHT22;10093;48.148;8.542;2023-08-21T12:01:52;33.20;99.90
19862;DHT22;10093;48.148;8.542;2023-08-21T12:04:18;34.60;99.90
19862;DHT22;10093;48.148;8.542;2023-08-21T12:06:44;35.70;99.90
19862;DHT22;10093;48.148;8.542;2023-08-21T12:09:10;35.50;99.90
19862;DHT22;10093;48.148;8.542;2023-08-21T12:11:36;34.60;99.90
19862;DHT22;10093;48.148;8.542;2023-08-21T12:14:04;33.80;99.90
19862;DHT22;10093;48.148;8.542;2023-08-21T12:16:29;33.90;99.90
19862;DHT22;10093;48.148;8.542;2023-08-21T12:18:55;33.70;99.90
19862;DHT22;10093;48.148;8.542;2023-08-21T12:21:23;33.30;99.90
19862;DHT22;10093;48.148;8.542;2023-08-21T12:23:49;33.00;99.90
19862;DHT22;10093;48.148;8.542;2023-08-21T12:26:15;32.80;99.90
19862;DHT22;10093;48.148;8.542;2023-08-21T12:28:47;32.80;99.90
19862;DHT22;10093;48.148;8.542;2023-08-21T12:31:13;33.00;99.90
19862;DHT22;10093;48.148;8.542;2023-08-21T12:33:39;33.40;99.90
19862;DHT22;10093;48.148;8.542;2023-08-21T12:36:05;35.00;99.90
19862;DHT22;10093;48.148;8.542;2023-08-21T12:38:30;36.40;99.90
19862;DHT22;10093;48.148;8.542;2023-08-21T12:40:57;37.80;99.90
19862;DHT22;10093;48.148;8.542;2023-08-21T12:43:22;38.00;99.90
19862;DHT22;10093;48.148;8.542;2023-08-21T12:45:48;38.80;99.90
19862;DHT22;10093;48.148;8.542;2023-08-21T12:48:13;38.50;99.90
19862;DHT22;10093;48.148;8.542;2023-08-21T12:50:40;38.20;99.90
19862;DHT22;10093;48.148;8.542;2023-08-21T12:53:05;38.10;99.90
19862;DHT22;10093;48.148;8.542;2023-08-21T12:55:31;38.60;99.90
19862;DHT22;10093;48.148;8.542;2023-08-21T12:57:57;38.40;99.90
19862;DHT22;10093;48.148;8.542;2023-08-21T13:00:22;37.70;99.90
19862;DHT22;10093;48.148;8.542;2023-08-21T13:02:48;36.80;99.90
19862;DHT22;10093;48.148;8.542;2023-08-21T13:05:14;36.10;99.90
19862;DHT22;10093;48.148;8.542;2023-08-21T13:07:40;36.80;99.90
19862;DHT22;10093;48.148;8.542;2023-08-21T13:10:06;36.10;99.90
19862;DHT22;10093;48.148;8.542;2023-08-21T13:12:32;36.40;99.90
19862;DHT22;10093;48.148;8.542;2023-08-21T13:14:58;37.60;99.90
19862;DHT22;10093;48.148;8.542;2023-08-21T13:17:24;36.70;99.90
19862;DHT22;10093;48.148;8.542;2023-08-21T13:19:49;34.30;99.90
19862;DHT22;10093;48.148;8.542;2023-08-21T13:22:18;34.50;99.90
19862;DHT22;10093;48.148;8.542;2023-08-21T13:24:43;34.50;99.90
19862;DHT22;10093;48.148;8.542;2023-08-21T13:27:10;35.90;99.90
19862;DHT22;10093;48.148;8.542;2023-08-21T13:29:36;34.90;99.90
19862;DHT22;10093;48.148;8.542;2023-08-21T13:32:02;34.00;99.90
19862;DHT22;10093;48.148;8.542;2023-08-21T13:34:27;34.20;99.90
19862;DHT22;10093;48.148;8.542;2023-08-21T13:36:53;35.40;99.90
19862;DHT22;10093;48.148;8.542;2023-08-21T13:39:19;36.20;99.90
19862;DHT22;10093;48.148;8.542;2023-08-21T13:41:44;35.40;99.90
19862;DHT22;10093;48.148;8.542;2023-08-21T13:44:10;34.10;99.90
19862;DHT22;10093;48.148;8.542;2023-08-21T13:46:35;34.80;99.90
19862;DHT22;10093;48.148;8.542;2023-08-21T13:49:01;35.70;99.90
19862;DHT22;10093;48.148;8.542;2023-08-21T13:51:27;36.50;99.90
19862;DHT22;10093;48.148;8.542;2023-08-21T13:53:53;37.10;99.90
19862;DHT22;10093;48.148;8.542;2023-08-21T13:56:18;35.60;99.90
19862;DHT22;10093;48.148;8.542;2023-08-21T13:58:44;35.70;99.90
19862;DHT22;10093;48.148;8.542;2023-08-21T14:01:09;37.10;99.90
19862;DHT22;10093;48.148;8.542;2023-08-21T14:03:35;38.30;99.90
19862;DHT22;10093;48.148;8.542;2023-08-21T14:06:01;36.80;99.90
19862;DHT22;10093;48.148;8.542;2023-08-21T14:08:26;35.20;99.90
19862;DHT22;10093;48.148;8.542;2023-08-21T14:10:52;34.20;99.90
19862;DHT22;10093;48.148;8.542;2023-08-21T14:13:17;34.40;99.90
19862;DHT22;10093;48.148;8.542;2023-08-21T14:15:43;34.60;99.90
19862;DHT22;10093;48.148;8.542;2023-08-21T14:18:09;35.40;99.90
19862;DHT22;10093;48.148;8.542;2023-08-21T14:20:34;36.10;99.90
19862;DHT22;10093;48.148;8.542;2023-08-21T14:23:00;35.90;99.90
19862;DHT22;10093;48.148;8.542;2023-08-21T14:25:26;35.70;99.90
19862;DHT22;10093;48.148;8.542;2023-08-21T14:27:51;35.40;99.90
19862;DHT22;10093;48.148;8.542;2023-08-21T14:30:17;34.30;99.90
19862;DHT22;10093;48.148;8.542;2023-08-21T14:32:43;32.60;99.90
19862;DHT22;10093;48.148;8.542;2023-08-21T14:35:09;32.30;99.90
19862;DHT22;10093;48.148;8.542;2023-08-21T14:37:35;32.60;99.90
19862;DHT22;10093;48.148;8.542;2023-08-21T14:40:01;32.70;99.90
19862;DHT22;10093;48.148;8.542;2023-08-21T14:42:31;32.70;99.90
19862;DHT22;10093;48.148;8.542;2023-08-21T14:44:57;32.80;99.90
19862;DHT22;10093;48.148;8.542;2023-08-21T14:47:23;33.40;99.90
19862;DHT22;10093;48.148;8.542;2023-08-21T14:49:48;33.80;99.90
19862;DHT22;10093;48.148;8.542;2023-08-21T14:52:14;32.90;99.90
19862;DHT22;10093;48.148;8.542;2023-08-21T14:54:40;32.70;99.90
19862;DHT22;10093;48.148;8.542;2023-08-21T14:57:06;32.70;99.90
19862;DHT22;10093;48.148;8.542;2023-08-21T14:59:31;32.60;99.90
19862;DHT22;10093;48.148;8.542;2023-08-21T15:01:57;31.80;99.90
19862;DHT22;10093;48.148;8.542;2023-08-21T15:04:22;32.00;99.90
19862;DHT22;10093;48.148;8.542;2023-08-21T15:06:48;32.30;99.90
19862;DHT22;10093;48.148;8.542;2023-08-21T15:09:14;32.40;99.90
19862;DHT22;10093;48.148;8.542;2023-08-21T15:11:39;32.50;99.90
19862;DHT22;10093;48.148;8.542;2023-08-21T15:14:09;32.40;99.90
19862;DHT22;10093;48.148;8.542;2023-08-21T15:16:37;32.60;99.90
19862;DHT22;10093;48.148;8.542;2023-08-21T15:19:03;32.80;99.90
19862;DHT22;10093;48.148;8.542;2023-08-21T15:21:28;32.70;99.90
19862;DHT22;10093;48.148;8.542;2023-08-21T15:23:54;32.80;99.90
19862;DHT22;10093;48.148;8.542;2023-08-21T15:26:20;32.70;99.90
19862;DHT22;10093;48.148;8.542;2023-08-21T15:28:47;32.60;99.90
19862;DHT22;10093;48.148;8.542;2023-08-21T15:31:13;32.50;99.90
19862;DHT22;10093;48.148;8.542;2023-08-21T15:33:38;32.40;99.90
19862;DHT22;10093;48.148;8.542;2023-08-21T15:36:04;32.30;99.90
19862;DHT22;10093;48.148;8.542;2023-08-21T15:38:30;32.30;99.90
19862;DHT22;10093;48.148;8.542;2023-08-21T15:40:55;32.20;99.90